createdAt,value
2022-08-25T00:00:31.653Z,90.15
2022-08-25T00:03:06.172Z,90.39
2022-08-25T00:05:41.022Z,90.60
2022-08-25T00:08:15.669Z,90.50
2022-08-25T00:11:03.088Z,90.71
2022-08-25T00:20:15.489Z,91.58
2022-08-25T02:31:01.183Z,91.87
2022-08-25T04:35:09.462Z,87.85
2022-08-25T05:30:44.474Z,84.64
2022-08-25T05:33:20.310Z,84.64
2022-08-25T05:35:54.496Z,85.36
2022-08-25T05:38:29.386Z,85.04
2022-08-25T05:41:05.446Z,84.49
2022-08-25T05:43:41.203Z,83.88
2022-08-25T05:46:17.805Z,83.78
2022-08-25T05:48:52.398Z,83.87
2022-08-25T05:51:26.799Z,83.72
2022-08-25T05:54:01.315Z,83.31
2022-08-25T05:56:35.470Z,83.81
2022-08-25T05:59:10.604Z,83.27
2022-08-25T06:02:03.254Z,83.18
2022-08-25T06:04:41.207Z,82.82
2022-08-25T06:07:15.640Z,83.37
2022-08-25T06:09:50.133Z,83.69
2022-08-25T06:12:24.275Z,83.63
2022-08-25T06:14:58.680Z,84.13
2022-08-25T06:17:35.510Z,84.44
2022-08-25T06:20:12.746Z,83.89
2022-08-25T06:22:47.356Z,85.66
2022-08-25T06:25:23.695Z,85.41
2022-08-25T06:27:58.082Z,85.27
2022-08-25T06:30:32.465Z,85.34
2022-08-25T06:33:08.220Z,85.34
2022-08-25T06:35:43.404Z,85.09
2022-08-25T06:38:17.545Z,86.62
2022-08-25T06:40:52.531Z,86.13
2022-08-25T06:43:26.636Z,85.28
2022-08-25T06:46:08.777Z,86.67
2022-08-25T06:48:44.532Z,86.53
2022-08-25T06:51:20.681Z,83.94
2022-08-25T06:53:55.103Z,83.79
2022-08-25T06:56:29.655Z,83.14
2022-08-25T06:59:04.203Z,83.70
2022-08-25T07:01:39.019Z,84.59
2022-08-25T07:04:14.620Z,84.38
2022-08-25T07:06:52.786Z,83.96
2022-08-25T07:09:27.130Z,83.96
2022-08-25T07:12:02.653Z,83.59
2022-08-25T07:14:37.084Z,83.93
2022-08-25T07:17:12.645Z,83.33
2022-08-25T07:19:48.222Z,84.07
2022-08-25T07:22:23.463Z,84.58
2022-08-25T07:24:57.603Z,84.09
2022-08-25T07:27:32.166Z,83.19
2022-08-25T07:30:08.704Z,80.97
2022-08-25T07:32:45.842Z,83.02
2022-08-25T07:35:24.177Z,80.61
2022-08-25T07:38:01.187Z,80.27
2022-08-25T07:40:43.054Z,79.91
2022-08-25T07:43:17.702Z,79.40
2022-08-25T07:45:51.812Z,80.17
2022-08-25T07:48:26.209Z,78.19
2022-08-25T07:51:08.093Z,79.00
2022-08-25T07:53:43.375Z,79.21
2022-08-25T07:56:18.933Z,80.07
2022-08-25T07:58:53.541Z,79.04
2022-08-25T08:01:27.886Z,78.76
2022-08-25T08:04:03.659Z,79.24
2022-08-25T08:06:41.596Z,78.98
2022-08-25T08:09:18.597Z,78.67
2022-08-25T08:11:54.470Z,76.92
2022-08-25T08:14:29.200Z,76.81
2022-08-25T08:17:07.519Z,76.40
2022-08-25T08:19:45.125Z,76.95
2022-08-25T08:22:21.406Z,73.33
2022-08-25T08:24:56.961Z,74.50
2022-08-25T08:27:31.161Z,73.50
2022-08-25T08:30:07.713Z,71.60
2022-08-25T08:33:06.413Z,73.14
2022-08-25T08:35:36.250Z,74.85
2022-08-25T08:38:17.341Z,71.51
2022-08-25T08:41:23.136Z,71.87
2022-08-25T08:44:07.507Z,73.00
2022-08-25T08:46:59.216Z,70.57
2022-08-25T08:49:42.185Z,70.61
2022-08-25T08:52:22.631Z,70.60
2022-08-25T08:55:06.627Z,71.82
2022-08-25T08:57:46.607Z,69.68
2022-08-25T09:00:22.654Z,68.49
2022-08-25T09:03:06.217Z,70.47
2022-08-25T09:05:47.372Z,68.51
2022-08-25T09:08:21.963Z,67.05
2022-08-25T09:11:04.840Z,67.08
2022-08-25T09:14:01.724Z,66.62
2022-08-25T09:16:56.581Z,66.39
2022-08-25T09:20:18.925Z,68.75
2022-08-25T09:23:03.441Z,66.72
2022-08-25T09:25:54.083Z,65.86
2022-08-25T09:28:35.814Z,65.97
2022-08-25T09:31:18.915Z,66.42
2022-08-25T09:33:57.458Z,65.37
2022-08-25T09:36:37.423Z,64.64
2022-08-25T09:39:12.347Z,61.22
2022-08-25T09:41:51.229Z,61.91
2022-08-25T09:44:31.927Z,59.08
2022-08-25T09:47:22.229Z,61.13
2022-08-25T09:50:00.842Z,61.71
2022-08-25T09:52:38.014Z,59.94
2022-08-25T09:55:34.422Z,62.95
2022-08-25T09:58:19.346Z,61.91
2022-08-25T10:01:14.395Z,61.63
2022-08-25T10:04:03.310Z,62.82
2022-08-25T10:06:48.600Z,63.21
2022-08-25T10:09:29.531Z,61.14
2022-08-25T10:12:16.385Z,64.22
2022-08-25T10:14:51.319Z,62.84
2022-08-25T10:17:33.544Z,60.17
2022-08-25T10:20:18.425Z,61.56
2022-08-25T10:22:54.025Z,59.55
2022-08-25T10:25:30.978Z,59.90
2022-08-25T10:28:12.514Z,58.10
2022-08-25T10:30:58.728Z,58.93
2022-08-25T10:33:46.351Z,56.93
2022-08-25T10:36:34.362Z,59.22
2022-08-25T10:39:33.795Z,58.36
2022-08-25T10:42:30.978Z,57.77
2022-08-25T10:45:44.243Z,54.55
2022-08-25T10:48:44.703Z,55.64
2022-08-25T10:51:40.217Z,54.95
2022-08-25T10:54:26.491Z,54.88
2022-08-25T10:57:10.177Z,53.64
2022-08-25T10:59:58.961Z,54.91
2022-08-25T11:02:59.698Z,53.71
2022-08-25T11:05:41.839Z,54.04
2022-08-25T11:08:22.626Z,56.75
2022-08-25T11:11:03.772Z,52.33
2022-08-25T11:13:45.671Z,52.95
2022-08-25T11:16:38.102Z,50.48
2022-08-25T11:19:20.238Z,50.55
2022-08-25T11:22:13.663Z,51.22
2022-08-25T11:25:01.146Z,50.91
2022-08-25T11:27:45.559Z,50.15
2022-08-25T11:30:20.540Z,50.92
2022-08-25T11:32:56.427Z,51.44
2022-08-25T11:35:36.412Z,51.34
2022-08-25T11:38:29.349Z,51.70
2022-08-25T11:41:19.036Z,51.19
2022-08-25T11:44:17.189Z,49.94
2022-08-25T11:47:14.727Z,51.57
2022-08-25T11:50:01.198Z,49.59
2022-08-25T11:52:56.414Z,51.68
2022-08-25T11:55:48.799Z,49.06
2022-08-25T11:58:45.246Z,49.07
2022-08-25T12:01:53.334Z,48.20
2022-08-25T12:04:44.699Z,46.87
2022-08-25T12:07:25.760Z,47.04
2022-08-25T12:10:22.668Z,46.50
2022-08-25T12:13:10.460Z,45.70
2022-08-25T12:16:02.356Z,49.08
2022-08-25T12:18:46.313Z,46.84
2022-08-25T12:21:36.121Z,47.39
2022-08-25T12:24:14.194Z,47.78
2022-08-25T12:26:57.791Z,45.98
2022-08-25T12:29:39.489Z,44.75
2022-08-25T12:32:33.273Z,45.55
2022-08-25T12:35:30.634Z,46.23
2022-08-25T12:38:10.119Z,46.24
2022-08-25T12:41:01.663Z,47.39
2022-08-25T12:43:38.500Z,50.44
2022-08-25T12:46:37.119Z,49.31
2022-08-25T12:49:31.864Z,49.28
2022-08-25T12:52:09.226Z,46.22
2022-08-25T12:54:52.794Z,46.55
2022-08-25T12:57:40.516Z,46.48
2022-08-25T13:00:20.312Z,43.93
2022-08-25T13:03:26.095Z,45.19
2022-08-25T13:06:29.304Z,45.35
2022-08-25T13:09:34.403Z,44.32
2022-08-25T13:12:17.211Z,43.57
2022-08-25T13:14:55.449Z,44.52
2022-08-25T13:17:33.795Z,45.00
2022-08-25T13:20:21.587Z,45.48
2022-08-25T13:23:01.557Z,45.17
2022-08-25T13:25:47.590Z,44.07
2022-08-25T13:28:29.114Z,43.30
2022-08-25T13:31:10.985Z,45.59
2022-08-25T13:33:54.746Z,45.16
2022-08-25T13:36:57.852Z,46.61
2022-08-25T13:39:53.131Z,48.43
2022-08-25T13:42:29.467Z,48.67
2022-08-25T13:45:05.700Z,48.50
2022-08-25T13:47:43.809Z,50.50
2022-08-25T13:50:30.269Z,50.13
2022-08-25T13:53:11.904Z,49.50
2022-08-25T13:55:53.242Z,48.34
2022-08-25T13:58:39.123Z,47.21
2022-08-25T14:01:47.141Z,47.75
2022-08-25T14:04:27.976Z,47.60
2022-08-25T14:07:26.684Z,47.30
2022-08-25T14:10:11.738Z,46.92
2022-08-25T14:12:48.309Z,46.08
2022-08-25T14:15:33.464Z,48.09
2022-08-25T14:18:13.734Z,47.42
2022-08-25T14:20:52.847Z,46.66
2022-08-25T14:23:31.956Z,46.38
2022-08-25T14:26:07.965Z,46.49
2022-08-25T14:28:42.102Z,46.73
2022-08-25T14:31:29.096Z,46.50
2022-08-25T14:34:05.594Z,48.24
2022-08-25T14:36:40.378Z,48.76
2022-08-25T14:39:14.522Z,48.82
2022-08-25T14:41:53.118Z,49.75
2022-08-25T14:44:28.054Z,48.02
2022-08-25T14:47:03.279Z,48.01
2022-08-25T14:49:45.954Z,47.45
2022-08-25T14:52:23.559Z,48.04
2022-08-25T14:54:58.374Z,48.09
2022-08-25T14:57:34.230Z,48.71
2022-08-25T15:00:10.954Z,46.43
2022-08-25T15:02:49.196Z,49.07
2022-08-25T15:05:28.453Z,48.58
2022-08-25T15:08:20.367Z,48.29
2022-08-25T15:10:54.931Z,46.55
2022-08-25T15:13:30.827Z,47.64
2022-08-25T15:16:05.985Z,47.82
2022-08-25T15:18:40.505Z,47.42
2022-08-25T15:21:16.173Z,47.89
2022-08-25T15:23:53.154Z,47.24
2022-08-25T15:26:31.287Z,47.60
2022-08-25T15:29:08.175Z,47.94
2022-08-25T15:31:43.605Z,48.80
2022-08-25T15:34:18.047Z,47.72
2022-08-25T15:36:52.990Z,47.61
2022-08-25T15:39:27.651Z,48.12
2022-08-25T15:42:02.676Z,48.47
2022-08-25T15:44:40.072Z,48.11
2022-08-25T15:47:15.522Z,49.10
2022-08-25T15:49:52.683Z,48.05
2022-08-25T15:52:44.601Z,47.28
2022-08-25T15:55:21.423Z,47.00
2022-08-25T15:57:55.595Z,47.90
2022-08-25T16:00:31.787Z,47.70
2022-08-25T16:03:07.980Z,47.95
2022-08-25T16:05:48.741Z,48.72
2022-08-25T16:08:23.252Z,48.54
2022-08-25T16:10:58.559Z,47.58
2022-08-25T16:13:33.357Z,47.48
2022-08-25T16:16:09.361Z,48.16
2022-08-25T16:18:45.127Z,48.11
2022-08-25T16:21:25.608Z,48.96
2022-08-25T16:24:05.507Z,47.81
2022-08-25T16:26:47.965Z,47.91
2022-08-25T16:29:22.797Z,48.52
2022-08-25T16:31:59.224Z,50.08
2022-08-25T16:34:38.592Z,49.33
2022-08-25T16:37:13.879Z,49.68
2022-08-25T16:39:53.784Z,50.63
2022-08-25T16:42:30.013Z,50.78
2022-08-25T16:45:05.321Z,50.26
2022-08-25T16:47:42.682Z,49.68
2022-08-25T16:50:17.416Z,50.10
2022-08-25T16:53:09.391Z,50.58
2022-08-25T16:55:44.339Z,50.97
2022-08-25T16:58:18.590Z,51.47
2022-08-25T17:00:53.761Z,53.23
2022-08-25T17:03:34.127Z,53.64
2022-08-25T17:06:09.206Z,55.62
2022-08-25T17:08:43.864Z,54.12
2022-08-25T17:11:20.656Z,54.50
2022-08-25T17:13:57.054Z,56.48
2022-08-25T17:16:35.654Z,55.81
2022-08-25T17:19:13.882Z,56.80
2022-08-25T17:21:48.359Z,57.03
2022-08-25T17:24:29.373Z,59.17
2022-08-25T17:27:06.640Z,59.08
2022-08-25T17:29:43.513Z,58.72
2022-08-25T17:32:18.215Z,58.63
2022-08-25T17:34:53.657Z,57.60
2022-08-25T17:37:28.216Z,58.54
2022-08-25T17:40:03.637Z,58.62
2022-08-25T17:42:38.220Z,59.26
2022-08-25T17:45:12.451Z,59.16
2022-08-25T17:47:46.946Z,59.85
2022-08-25T17:50:22.424Z,60.26
2022-08-25T17:52:56.984Z,60.47
2022-08-25T17:55:31.917Z,60.80
2022-08-25T17:58:06.771Z,61.68
2022-08-25T18:00:43.773Z,61.87
2022-08-25T18:03:19.464Z,62.96
2022-08-25T18:05:55.490Z,63.65
2022-08-25T18:08:34.898Z,63.09
2022-08-25T18:11:10.235Z,63.50
2022-08-25T18:13:46.331Z,63.85
2022-08-25T18:16:21.400Z,64.06
2022-08-25T18:18:57.193Z,63.90
2022-08-25T18:21:32.784Z,65.15
2022-08-25T18:24:08.116Z,66.77
2022-08-25T18:26:42.815Z,66.94
2022-08-25T18:29:17.374Z,64.75
2022-08-25T18:31:53.651Z,64.71
2022-08-25T18:34:31.649Z,65.46
2022-08-25T18:37:21.079Z,66.19
2022-08-25T18:40:13.518Z,66.82
2022-08-25T18:42:48.244Z,65.08
2022-08-25T18:45:24.654Z,65.16
2022-08-25T18:48:01.224Z,65.89
2022-08-25T18:50:40.411Z,65.98
2022-08-25T18:53:16.456Z,65.81
2022-08-25T18:55:54.533Z,65.85
2022-08-25T18:58:29.142Z,65.12
2022-08-25T19:01:04.437Z,66.31
2022-08-25T19:03:38.904Z,66.07
2022-08-25T19:06:13.501Z,65.53
2022-08-25T19:08:49.475Z,65.28
2022-08-25T19:11:24.693Z,67.37
2022-08-25T19:13:59.801Z,65.91
2022-08-25T19:16:38.341Z,66.72
2022-08-25T19:19:14.403Z,66.92
2022-08-25T19:21:49.053Z,66.15
2022-08-25T19:24:26.882Z,67.46
2022-08-25T19:27:02.808Z,66.38
2022-08-25T19:29:36.971Z,67.50
2022-08-25T19:32:12.647Z,66.41
2022-08-25T19:34:47.621Z,67.07
2022-08-25T19:37:28.540Z,68.30
2022-08-25T19:40:05.756Z,66.89
2022-08-25T19:42:40.822Z,68.60
2022-08-25T19:45:15.732Z,69.39
2022-08-25T19:47:51.847Z,67.23
2022-08-25T19:50:27.891Z,66.94
2022-08-25T19:53:02.477Z,67.25
2022-08-25T19:55:38.799Z,68.82
2022-08-25T19:58:16.212Z,66.69
2022-08-25T20:00:52.177Z,68.95
2022-08-25T20:03:26.605Z,67.68
2022-08-25T20:06:03.299Z,67.47
2022-08-25T20:08:38.832Z,67.49
2022-08-25T20:11:15.489Z,67.76
2022-08-25T20:13:50.228Z,67.47
2022-08-25T20:16:24.910Z,69.26
2022-08-25T20:19:00.151Z,67.80
2022-08-25T20:21:37.866Z,69.05
2022-08-25T20:24:30.894Z,68.50
2022-08-25T20:27:06.833Z,67.66
2022-08-25T20:29:41.563Z,68.39
2022-08-25T20:32:19.830Z,68.03
2022-08-25T20:34:55.842Z,69.75
2022-08-25T20:37:30.511Z,69.50
2022-08-25T20:40:07.227Z,69.10
2022-08-25T20:42:43.683Z,68.79
2022-08-25T20:45:21.905Z,69.27
2022-08-25T20:47:57.431Z,68.23
2022-08-25T20:50:33.701Z,68.60
2022-08-25T20:53:10.264Z,69.71
2022-08-25T20:55:48.421Z,68.44
2022-08-25T20:58:24.572Z,69.85
2022-08-25T21:01:00.952Z,68.27
2022-08-25T21:03:35.131Z,69.32
2022-08-25T21:06:12.316Z,68.97
2022-08-25T21:08:51.154Z,68.58
2022-08-25T21:11:26.770Z,68.99
2022-08-25T21:14:02.938Z,68.10
2022-08-25T21:16:42.096Z,67.94
2022-08-25T21:19:33.960Z,70.05
2022-08-25T21:22:08.733Z,70.02
2022-08-25T21:24:45.472Z,70.71
2022-08-25T21:27:20.233Z,69.87
2022-08-25T21:29:59.796Z,69.04
2022-08-25T21:32:34.671Z,69.20
2022-08-25T21:35:09.248Z,71.49
2022-08-25T21:37:45.031Z,71.01
2022-08-25T21:40:20.067Z,70.89
2022-08-25T21:42:55.525Z,69.78
2022-08-25T21:45:35.964Z,69.70
2022-08-25T21:48:11.552Z,68.92
2022-08-25T21:50:45.860Z,69.59
2022-08-25T21:53:20.325Z,70.10
2022-08-25T21:55:54.513Z,68.83
2022-08-25T21:58:28.866Z,69.15
2022-08-25T22:01:10.948Z,69.58
2022-08-25T22:03:47.256Z,69.63
2022-08-25T22:06:22.671Z,70.84
2022-08-25T22:08:57.298Z,70.17
2022-08-25T22:11:33.911Z,70.23
2022-08-25T22:14:11.623Z,71.33
2022-08-25T22:16:47.389Z,69.98
2022-08-25T22:19:22.771Z,71.70
2022-08-25T22:21:57.683Z,71.34
2022-08-25T22:24:32.143Z,71.10
2022-08-25T22:27:15.484Z,71.62
2022-08-25T22:29:51.764Z,71.56
2022-08-25T22:32:27.679Z,70.77
2022-08-25T22:35:02.133Z,70.95
2022-08-25T22:37:36.411Z,71.55
2022-08-25T22:40:12.713Z,70.72
2022-08-25T22:42:48.210Z,71.32
2022-08-25T22:45:22.736Z,71.46
2022-08-25T22:47:59.215Z,72.54
2022-08-25T22:50:36.400Z,71.03
2022-08-25T22:53:10.479Z,71.33
2022-08-25T22:55:45.039Z,71.52
2022-08-25T22:58:20.934Z,71.75
2022-08-25T23:00:55.396Z,72.25
2022-08-25T23:03:30.947Z,72.77
2022-08-25T23:06:05.616Z,72.79
2022-08-25T23:08:41.031Z,73.22
2022-08-25T23:11:17.334Z,73.27
2022-08-25T23:13:52.132Z,73.26
2022-08-25T23:16:31.747Z,72.75
2022-08-25T23:19:07.329Z,73.09
2022-08-25T23:21:59.314Z,72.58
2022-08-25T23:24:33.533Z,72.39
2022-08-25T23:27:10.122Z,71.92
2022-08-25T23:29:47.308Z,71.60
2022-08-25T23:32:21.709Z,73.02
2022-08-25T23:34:57.329Z,72.99
2022-08-25T23:37:31.757Z,72.46
2022-08-25T23:40:07.691Z,72.92
2022-08-25T23:42:42.271Z,73.02
2022-08-25T23:45:17.181Z,73.17
2022-08-25T23:47:51.646Z,73.34
2022-08-25T23:50:27.508Z,72.98
2022-08-25T23:53:02.015Z,72.99
2022-08-25T23:55:36.164Z,72.79
2022-08-25T23:58:10.805Z,72.82
